Pagina principale
METAR-TAF:

METAR-TAF

Aeroporti :

Aeroporto di Comiso

Comiso, Italia

latitudine: 36-59-30N, longitudine: 14-36-25E, altezza: 190 m

Osservazione

Il bollettino è stato emesso 22 minuti fa, alle 11:50 UTC
Vento 12 kt da nord-est
Temperature 22°C
Umidità 69%
Pressione 1013 hPa
Visibilità 10 km o più

METAR: LICB 261150Z AUTO 05012KT 9999 SCT090/// BKN100/// 22/16 Q1013

Ora: 14:12 (12:12 UTC)

Previsione

Il bollettino è stato emesso 1 ora e 12 minuti fa, alle 11:00 UTC
Previsione valida dal 26 alle 12 UTC al 27 alle 12 UTC
Vento 12 kt da est/nord-est
Visibilità 10 km o più
Nubi sparse ad un'altezza di 3000 ft
Temporaneamente
dal 26 alle 12 UTC al 26 alle 24 UTC
Visibilità: 4000 m
temporale, pioggia

TAF: LICB 261100Z 2612/2712 06012KT 9999 SCT030 TEMPO 2612/2624 4000 TSRA

Osservazioni e previsioni meteorologiche di più di 4000 aeroporti (messaggi METAR e TAF).

Le stazioni disponibili sono rappresentate dai dischi gialli e rossi sulla carta.

Puntare il mouse per vedere il nome della stazione.

Clicca sopra per visualizzare le osservazioni e previsioni meteorologiche.

Per cambiare la mappa : fare clic sui pulsanti verdi con una croce nera per ingrandire, il pulsante verde con un trattino per diminuire, o sulla freccia verde per le mappe adiacenti.


METAR-TAF: